sensor_id;sensor_type;location;lat;lon;timestamp;temperature;humidity
75738;DHT22;64356;45.638;13.764;2022-11-15T00:02:21;20.90;66.10
75738;DHT22;64356;45.638;13.764;2022-11-15T00:04:47;20.90;67.50
75738;DHT22;64356;45.638;13.764;2022-11-15T00:07:12;21.00;67.20
75738;DHT22;64356;45.638;13.764;2022-11-15T00:09:38;21.00;66.60
75738;DHT22;64356;45.638;13.764;2022-11-15T00:12:04;21.00;67.00
75738;DHT22;64356;45.638;13.764;2022-11-15T00:14:29;21.00;67.00
75738;DHT22;64356;45.638;13.764;2022-11-15T00:16:55;21.00;67.50
75738;DHT22;64356;45.638;13.764;2022-11-15T00:19:20;21.00;66.90
75738;DHT22;64356;45.638;13.764;2022-11-15T00:21:46;21.00;67.80
75738;DHT22;64356;45.638;13.764;2022-11-15T00:24:12;21.00;67.40
75738;DHT22;64356;45.638;13.764;2022-11-15T00:26:37;21.00;66.30
75738;DHT22;64356;45.638;13.764;2022-11-15T00:29:03;21.00;66.70
75738;DHT22;64356;45.638;13.764;2022-11-15T00:31:29;20.90;67.00
75738;DHT22;64356;45.638;13.764;2022-11-15T00:33:54;20.90;67.80
75738;DHT22;64356;45.638;13.764;2022-11-15T00:36:20;20.90;66.80
75738;DHT22;64356;45.638;13.764;2022-11-15T00:38:45;20.90;66.60
75738;DHT22;64356;45.638;13.764;2022-11-15T00:41:11;20.80;67.50
75738;DHT22;64356;45.638;13.764;2022-11-15T00:43:37;20.80;67.20
75738;DHT22;64356;45.638;13.764;2022-11-15T00:46:05;20.80;66.60
75738;DHT22;64356;45.638;13.764;2022-11-15T00:48:31;20.80;67.30
75738;DHT22;64356;45.638;13.764;2022-11-15T00:50:57;20.70;66.50
75738;DHT22;64356;45.638;13.764;2022-11-15T00:53:22;20.70;67.00
75738;DHT22;64356;45.638;13.764;2022-11-15T00:55:48;20.70;67.20
75738;DHT22;64356;45.638;13.764;2022-11-15T00:58:14;20.70;66.50
75738;DHT22;64356;45.638;13.764;2022-11-15T01:00:39;20.70;66.60
75738;DHT22;64356;45.638;13.764;2022-11-15T01:03:05;20.70;66.90
75738;DHT22;64356;45.638;13.764;2022-11-15T01:05:30;20.70;67.60
75738;DHT22;64356;45.638;13.764;2022-11-15T01:07:56;20.70;67.60
75738;DHT22;64356;45.638;13.764;2022-11-15T01:10:23;20.70;67.30
75738;DHT22;64356;45.638;13.764;2022-11-15T01:12:49;20.70;67.90
75738;DHT22;64356;45.638;13.764;2022-11-15T01:15:15;20.60;67.70
75738;DHT22;64356;45.638;13.764;2022-11-15T01:17:40;20.60;68.00
75738;DHT22;64356;45.638;13.764;2022-11-15T01:20:07;20.60;67.50
75738;DHT22;64356;45.638;13.764;2022-11-15T01:22:32;20.60;67.40
75738;DHT22;64356;45.638;13.764;2022-11-15T01:24:58;20.60;67.20
75738;DHT22;64356;45.638;13.764;2022-11-15T01:27:24;20.60;67.70
75738;DHT22;64356;45.638;13.764;2022-11-15T01:29:50;20.60;67.80
75738;DHT22;64356;45.638;13.764;2022-11-15T01:32:15;20.50;67.90
75738;DHT22;64356;45.638;13.764;2022-11-15T01:34:41;20.60;67.90
75738;DHT22;64356;45.638;13.764;2022-11-15T01:37:07;20.50;68.50
75738;DHT22;64356;45.638;13.764;2022-11-15T01:39:32;20.50;68.10
75738;DHT22;64356;45.638;13.764;2022-11-15T01:41:58;20.50;68.00
75738;DHT22;64356;45.638;13.764;2022-11-15T01:44:51;20.40;68.10
75738;DHT22;64356;45.638;13.764;2022-11-15T01:47:33;20.50;68.60
75738;DHT22;64356;45.638;13.764;2022-11-15T01:50:09;20.40;68.20
75738;DHT22;64356;45.638;13.764;2022-11-15T01:52:37;20.40;68.20
75738;DHT22;64356;45.638;13.764;2022-11-15T01:55:05;20.40;67.80
75738;DHT22;64356;45.638;13.764;2022-11-15T01:57:34;20.40;68.70
75738;DHT22;64356;45.638;13.764;2022-11-15T02:00:00;20.40;67.80
75738;DHT22;64356;45.638;13.764;2022-11-15T02:02:26;20.40;68.10
75738;DHT22;64356;45.638;13.764;2022-11-15T02:04:52;20.40;68.90
75738;DHT22;64356;45.638;13.764;2022-11-15T02:07:19;20.40;68.00
75738;DHT22;64356;45.638;13.764;2022-11-15T02:09:46;20.40;68.20
75738;DHT22;64356;45.638;13.764;2022-11-15T02:12:14;20.40;68.60
75738;DHT22;64356;45.638;13.764;2022-11-15T02:14:43;20.40;68.50
75738;DHT22;64356;45.638;13.764;2022-11-15T02:19:54;20.40;68.90
75738;DHT22;64356;45.638;13.764;2022-11-15T02:38:38;20.30;68.80
75738;DHT22;64356;45.638;13.764;2022-11-15T02:41:16;20.40;69.10
75738;DHT22;64356;45.638;13.764;2022-11-15T02:43:51;20.40;69.50
75738;DHT22;64356;45.638;13.764;2022-11-15T02:49:18;20.40;68.90
75738;DHT22;64356;45.638;13.764;2022-11-15T02:51:46;20.40;68.20
75738;DHT22;64356;45.638;13.764;2022-11-15T02:54:15;20.40;69.40
75738;DHT22;64356;45.638;13.764;2022-11-15T02:56:44;20.40;69.80
75738;DHT22;64356;45.638;13.764;2022-11-15T03:04:23;20.40;69.60
75738;DHT22;64356;45.638;13.764;2022-11-15T03:06:58;20.40;69.10
75738;DHT22;64356;45.638;13.764;2022-11-15T03:09:30;20.50;68.70
75738;DHT22;64356;45.638;13.764;2022-11-15T03:12:41;20.50;69.60
75738;DHT22;64356;45.638;13.764;2022-11-15T03:15:19;20.50;69.10
75738;DHT22;64356;45.638;13.764;2022-11-15T03:18:05;20.50;69.40
75738;DHT22;64356;45.638;13.764;2022-11-15T03:20:36;20.40;69.00
75738;DHT22;64356;45.638;13.764;2022-11-15T03:23:08;20.40;69.30
75738;DHT22;64356;45.638;13.764;2022-11-15T03:25:38;20.50;69.40
75738;DHT22;64356;45.638;13.764;2022-11-15T03:28:06;20.50;69.60
75738;DHT22;64356;45.638;13.764;2022-11-15T03:30:35;20.50;69.60
75738;DHT22;64356;45.638;13.764;2022-11-15T03:33:03;20.50;69.60
75738;DHT22;64356;45.638;13.764;2022-11-15T03:35:34;20.50;69.20
75738;DHT22;64356;45.638;13.764;2022-11-15T03:38:04;20.50;68.90
75738;DHT22;64356;45.638;13.764;2022-11-15T03:40:38;20.50;68.70
75738;DHT22;64356;45.638;13.764;2022-11-15T03:43:17;20.50;69.50
75738;DHT22;64356;45.638;13.764;2022-11-15T03:45:56;20.50;69.50
75738;DHT22;64356;45.638;13.764;2022-11-15T03:48:27;20.50;69.10
75738;DHT22;64356;45.638;13.764;2022-11-15T03:50:55;20.50;68.70
75738;DHT22;64356;45.638;13.764;2022-11-15T03:53:21;20.50;68.90
75738;DHT22;64356;45.638;13.764;2022-11-15T03:55:47;20.50;69.10
75738;DHT22;64356;45.638;13.764;2022-11-15T03:58:12;20.50;69.30
75738;DHT22;64356;45.638;13.764;2022-11-15T04:00:38;20.50;68.50
75738;DHT22;64356;45.638;13.764;2022-11-15T04:03:04;20.50;69.30
75738;DHT22;64356;45.638;13.764;2022-11-15T04:05:29;20.50;69.50
75738;DHT22;64356;45.638;13.764;2022-11-15T04:07:55;20.50;69.30
75738;DHT22;64356;45.638;13.764;2022-11-15T04:10:21;20.50;69.40
75738;DHT22;64356;45.638;13.764;2022-11-15T04:12:46;20.50;69.50
75738;DHT22;64356;45.638;13.764;2022-11-15T04:15:18;20.50;69.40
75738;DHT22;64356;45.638;13.764;2022-11-15T04:17:50;20.50;69.10
75738;DHT22;64356;45.638;13.764;2022-11-15T04:20:21;20.50;69.00
75738;DHT22;64356;45.638;13.764;2022-11-15T04:23:09;20.50;68.80
75738;DHT22;64356;45.638;13.764;2022-11-15T04:25:55;20.50;69.00
75738;DHT22;64356;45.638;13.764;2022-11-15T04:28:21;20.50;69.00
75738;DHT22;64356;45.638;13.764;2022-11-15T04:30:47;20.50;68.90
75738;DHT22;64356;45.638;13.764;2022-11-15T04:33:13;20.40;68.80
75738;DHT22;64356;45.638;13.764;2022-11-15T04:35:39;20.50;68.90
75738;DHT22;64356;45.638;13.764;2022-11-15T04:38:06;20.50;68.90
75738;DHT22;64356;45.638;13.764;2022-11-15T04:40:32;20.50;68.40
75738;DHT22;64356;45.638;13.764;2022-11-15T04:42:58;20.50;68.90
75738;DHT22;64356;45.638;13.764;2022-11-15T04:45:23;20.50;68.40
75738;DHT22;64356;45.638;13.764;2022-11-15T04:47:49;20.50;69.00
75738;DHT22;64356;45.638;13.764;2022-11-15T04:50:16;20.50;68.60
75738;DHT22;64356;45.638;13.764;2022-11-15T04:52:52;20.50;68.70
75738;DHT22;64356;45.638;13.764;2022-11-15T04:55:18;20.50;68.90
75738;DHT22;64356;45.638;13.764;2022-11-15T04:57:43;20.50;68.90
75738;DHT22;64356;45.638;13.764;2022-11-15T05:00:12;20.50;69.10
75738;DHT22;64356;45.638;13.764;2022-11-15T05:02:38;20.50;68.90
75738;DHT22;64356;45.638;13.764;2022-11-15T05:05:23;20.50;68.90
75738;DHT22;64356;45.638;13.764;2022-11-15T05:07:49;20.50;69.00
75738;DHT22;64356;45.638;13.764;2022-11-15T05:10:15;20.40;68.90
75738;DHT22;64356;45.638;13.764;2022-11-15T05:12:41;20.50;68.70
75738;DHT22;64356;45.638;13.764;2022-11-15T05:15:07;20.50;68.60
75738;DHT22;64356;45.638;13.764;2022-11-15T05:17:33;20.50;68.80
75738;DHT22;64356;45.638;13.764;2022-11-15T05:19:59;20.40;68.80
75738;DHT22;64356;45.638;13.764;2022-11-15T05:22:25;20.40;68.30
75738;DHT22;64356;45.638;13.764;2022-11-15T05:24:50;20.40;68.40
75738;DHT22;64356;45.638;13.764;2022-11-15T05:27:16;20.40;68.50
75738;DHT22;64356;45.638;13.764;2022-11-15T05:29:42;20.40;68.60
75738;DHT22;64356;45.638;13.764;2022-11-15T05:32:09;20.40;68.90
75738;DHT22;64356;45.638;13.764;2022-11-15T05:34:35;20.40;68.40
75738;DHT22;64356;45.638;13.764;2022-11-15T05:37:01;20.40;68.70
75738;DHT22;64356;45.638;13.764;2022-11-15T05:39:27;20.40;68.70
75738;DHT22;64356;45.638;13.764;2022-11-15T05:41:56;20.40;68.70
75738;DHT22;64356;45.638;13.764;2022-11-15T05:44:23;20.40;68.50
75738;DHT22;64356;45.638;13.764;2022-11-15T05:46:51;20.40;68.70
75738;DHT22;64356;45.638;13.764;2022-11-15T05:49:24;20.40;68.80
75738;DHT22;64356;45.638;13.764;2022-11-15T05:51:53;20.40;68.30
75738;DHT22;64356;45.638;13.764;2022-11-15T05:54:19;20.40;68.40
75738;DHT22;64356;45.638;13.764;2022-11-15T05:56:47;20.40;68.10
75738;DHT22;64356;45.638;13.764;2022-11-15T05:59:13;20.40;68.30
75738;DHT22;64356;45.638;13.764;2022-11-15T06:01:39;20.40;68.40
75738;DHT22;64356;45.638;13.764;2022-11-15T06:04:05;20.40;68.60
75738;DHT22;64356;45.638;13.764;2022-11-15T06:06:30;20.40;68.60
75738;DHT22;64356;45.638;13.764;2022-11-15T06:08:56;20.40;68.80
75738;DHT22;64356;45.638;13.764;2022-11-15T06:11:21;20.40;68.60
75738;DHT22;64356;45.638;13.764;2022-11-15T06:13:47;20.40;68.60
75738;DHT22;64356;45.638;13.764;2022-11-15T06:16:13;20.40;68.90
75738;DHT22;64356;45.638;13.764;2022-11-15T06:18:39;20.40;68.40
75738;DHT22;64356;45.638;13.764;2022-11-15T06:21:05;20.30;68.40
75738;DHT22;64356;45.638;13.764;2022-11-15T06:23:35;20.30;68.30
75738;DHT22;64356;45.638;13.764;2022-11-15T06:26:01;20.40;68.80
75738;DHT22;64356;45.638;13.764;2022-11-15T06:28:31;20.40;68.30
75738;DHT22;64356;45.638;13.764;2022-11-15T06:31:05;20.30;69.20
75738;DHT22;64356;45.638;13.764;2022-11-15T06:33:31;20.30;68.30
75738;DHT22;64356;45.638;13.764;2022-11-15T06:36:01;20.30;68.60
75738;DHT22;64356;45.638;13.764;2022-11-15T06:38:26;20.30;68.30
75738;DHT22;64356;45.638;13.764;2022-11-15T06:40:52;20.30;68.40
75738;DHT22;64356;45.638;13.764;2022-11-15T06:43:18;20.30;68.40
75738;DHT22;64356;45.638;13.764;2022-11-15T06:45:43;20.30;68.40
75738;DHT22;64356;45.638;13.764;2022-11-15T06:48:09;20.30;68.70
75738;DHT22;64356;45.638;13.764;2022-11-15T06:50:34;20.30;68.40
75738;DHT22;64356;45.638;13.764;2022-11-15T06:53:02;20.30;68.40
75738;DHT22;64356;45.638;13.764;2022-11-15T06:55:28;20.30;68.60
75738;DHT22;64356;45.638;13.764;2022-11-15T06:57:54;20.30;68.70
75738;DHT22;64356;45.638;13.764;2022-11-15T07:00:21;20.30;69.00
75738;DHT22;64356;45.638;13.764;2022-11-15T07:02:47;20.30;68.80
75738;DHT22;64356;45.638;13.764;2022-11-15T07:05:13;20.30;68.50
75738;DHT22;64356;45.638;13.764;2022-11-15T07:07:39;20.30;68.60
75738;DHT22;64356;45.638;13.764;2022-11-15T07:10:06;20.30;68.50
75738;DHT22;64356;45.638;13.764;2022-11-15T07:12:33;20.30;68.50
75738;DHT22;64356;45.638;13.764;2022-11-15T07:14:58;20.30;68.30
75738;DHT22;64356;45.638;13.764;2022-11-15T07:17:24;20.30;68.50
75738;DHT22;64356;45.638;13.764;2022-11-15T07:19:50;20.30;68.60
75738;DHT22;64356;45.638;13.764;2022-11-15T07:22:15;20.30;68.50
75738;DHT22;64356;45.638;13.764;2022-11-15T07:24:41;20.30;68.50
75738;DHT22;64356;45.638;13.764;2022-11-15T07:27:06;20.30;68.40
75738;DHT22;64356;45.638;13.764;2022-11-15T07:29:32;20.30;68.60
75738;DHT22;64356;45.638;13.764;2022-11-15T07:31:57;20.30;68.40
75738;DHT22;64356;45.638;13.764;2022-11-15T07:34:24;20.30;68.60
75738;DHT22;64356;45.638;13.764;2022-11-15T07:36:50;20.30;68.30
75738;DHT22;64356;45.638;13.764;2022-11-15T07:39:15;20.30;68.60
75738;DHT22;64356;45.638;13.764;2022-11-15T07:41:41;20.30;68.70
75738;DHT22;64356;45.638;13.764;2022-11-15T07:44:08;20.30;68.70
75738;DHT22;64356;45.638;13.764;2022-11-15T07:46:34;20.30;68.70
75738;DHT22;64356;45.638;13.764;2022-11-15T07:49:00;20.30;68.40
75738;DHT22;64356;45.638;13.764;2022-11-15T07:51:25;20.30;68.10
75738;DHT22;64356;45.638;13.764;2022-11-15T07:53:51;20.30;68.30
75738;DHT22;64356;45.638;13.764;2022-11-15T07:56:17;20.30;68.30
75738;DHT22;64356;45.638;13.764;2022-11-15T07:58:42;20.30;68.20
75738;DHT22;64356;45.638;13.764;2022-11-15T08:01:10;20.30;68.30
75738;DHT22;64356;45.638;13.764;2022-11-15T08:03:36;20.30;68.40
75738;DHT22;64356;45.638;13.764;2022-11-15T08:06:03;20.30;68.80
75738;DHT22;64356;45.638;13.764;2022-11-15T08:08:29;20.30;68.80
75738;DHT22;64356;45.638;13.764;2022-11-15T08:10:54;20.40;69.00
75738;DHT22;64356;45.638;13.764;2022-11-15T08:13:22;20.30;68.90
75738;DHT22;64356;45.638;13.764;2022-11-15T08:15:48;20.30;69.00
75738;DHT22;64356;45.638;13.764;2022-11-15T08:18:15;20.40;68.90
75738;DHT22;64356;45.638;13.764;2022-11-15T08:20:42;20.40;68.90
75738;DHT22;64356;45.638;13.764;2022-11-15T08:23:10;20.30;68.60
75738;DHT22;64356;45.638;13.764;2022-11-15T08:25:36;20.40;69.10
75738;DHT22;64356;45.638;13.764;2022-11-15T08:28:06;20.40;68.90
75738;DHT22;64356;45.638;13.764;2022-11-15T08:30:38;20.30;69.00
75738;DHT22;64356;45.638;13.764;2022-11-15T08:33:04;20.40;68.80
75738;DHT22;64356;45.638;13.764;2022-11-15T08:35:30;20.30;68.60
75738;DHT22;64356;45.638;13.764;2022-11-15T08:37:55;20.30;68.80
75738;DHT22;64356;45.638;13.764;2022-11-15T08:40:21;20.30;68.60
75738;DHT22;64356;45.638;13.764;2022-11-15T08:42:47;20.30;68.60
75738;DHT22;64356;45.638;13.764;2022-11-15T08:45:13;20.30;68.50
75738;DHT22;64356;45.638;13.764;2022-11-15T08:47:39;20.20;68.10
75738;DHT22;64356;45.638;13.764;2022-11-15T08:50:05;20.20;67.80
75738;DHT22;64356;45.638;13.764;2022-11-15T08:52:31;20.20;67.50
75738;DHT22;64356;45.638;13.764;2022-11-15T08:54:57;20.10;66.20
75738;DHT22;64356;45.638;13.764;2022-11-15T08:57:23;20.00;64.20
75738;DHT22;64356;45.638;13.764;2022-11-15T08:59:49;20.00;64.90
75738;DHT22;64356;45.638;13.764;2022-11-15T09:02:15;19.90;64.10
75738;DHT22;64356;45.638;13.764;2022-11-15T09:04:42;19.80;63.70
75738;DHT22;64356;45.638;13.764;2022-11-15T09:07:08;19.80;64.20
75738;DHT22;64356;45.638;13.764;2022-11-15T09:09:34;19.70;63.50
75738;DHT22;64356;45.638;13.764;2022-11-15T09:12:00;19.70;63.30
75738;DHT22;64356;45.638;13.764;2022-11-15T09:14:25;19.60;62.60
75738;DHT22;64356;45.638;13.764;2022-11-15T09:16:51;19.60;62.60
75738;DHT22;64356;45.638;13.764;2022-11-15T09:19:17;19.50;62.50
75738;DHT22;64356;45.638;13.764;2022-11-15T09:21:42;19.50;60.70
75738;DHT22;64356;45.638;13.764;2022-11-15T09:24:08;19.50;60.50
75738;DHT22;64356;45.638;13.764;2022-11-15T09:26:34;19.30;59.90
75738;DHT22;64356;45.638;13.764;2022-11-15T09:28:59;19.40;63.40
75738;DHT22;64356;45.638;13.764;2022-11-15T09:31:27;19.50;63.50
75738;DHT22;64356;45.638;13.764;2022-11-15T09:33:52;19.60;62.60
75738;DHT22;64356;45.638;13.764;2022-11-15T09:36:18;19.70;63.10
75738;DHT22;64356;45.638;13.764;2022-11-15T09:38:44;19.70;63.30
75738;DHT22;64356;45.638;13.764;2022-11-15T09:49:13;19.80;63.70
75738;DHT22;64356;45.638;13.764;2022-11-15T09:51:44;19.80;63.80
75738;DHT22;64356;45.638;13.764;2022-11-15T09:54:39;19.90;64.00
75738;DHT22;64356;45.638;13.764;2022-11-15T09:57:24;19.90;64.60
75738;DHT22;64356;45.638;13.764;2022-11-15T10:00:19;19.90;64.90
75738;DHT22;64356;45.638;13.764;2022-11-15T10:05:48;19.90;65.10
75738;DHT22;64356;45.638;13.764;2022-11-15T10:09:21;19.80;65.10
75738;DHT22;64356;45.638;13.764;2022-11-15T10:11:29;19.80;64.90
75738;DHT22;64356;45.638;13.764;2022-11-15T10:14:11;19.90;64.50
75738;DHT22;64356;45.638;13.764;2022-11-15T10:24:45;20.10;64.90
75738;DHT22;64356;45.638;13.764;2022-11-15T10:27:14;20.10;64.70
75738;DHT22;64356;45.638;13.764;2022-11-15T10:29:48;20.20;64.80
75738;DHT22;64356;45.638;13.764;2022-11-15T10:32:16;20.20;64.80
75738;DHT22;64356;45.638;13.764;2022-11-15T10:34:43;20.20;64.70
75738;DHT22;64356;45.638;13.764;2022-11-15T10:37:08;20.20;64.80
75738;DHT22;64356;45.638;13.764;2022-11-15T10:39:34;20.20;64.70
75738;DHT22;64356;45.638;13.764;2022-11-15T10:42:27;20.20;64.70
75738;DHT22;64356;45.638;13.764;2022-11-15T10:44:54;20.20;64.70
75738;DHT22;64356;45.638;13.764;2022-11-15T10:50:11;20.20;64.40
75738;DHT22;64356;45.638;13.764;2022-11-15T10:52:51;20.20;64.30
75738;DHT22;64356;45.638;13.764;2022-11-15T10:57:49;20.10;64.70
75738;DHT22;64356;45.638;13.764;2022-11-15T11:03:05;20.10;66.90
75738;DHT22;64356;45.638;13.764;2022-11-15T11:05:40;20.10;67.10
75738;DHT22;64356;45.638;13.764;2022-11-15T11:08:23;20.10;66.80
75738;DHT22;64356;45.638;13.764;2022-11-15T11:10:57;20.10;66.70
75738;DHT22;64356;45.638;13.764;2022-11-15T11:29:58;20.20;66.80
75738;DHT22;64356;45.638;13.764;2022-11-15T11:35:35;20.20;66.70
75738;DHT22;64356;45.638;13.764;2022-11-15T11:44:38;20.20;66.50
75738;DHT22;64356;45.638;13.764;2022-11-15T11:47:01;20.20;66.40
75738;DHT22;64356;45.638;13.764;2022-11-15T11:49:36;20.10;66.20
75738;DHT22;64356;45.638;13.764;2022-11-15T11:52:17;20.10;66.20
75738;DHT22;64356;45.638;13.764;2022-11-15T11:54:58;20.10;66.10
75738;DHT22;64356;45.638;13.764;2022-11-15T12:00:24;20.10;65.40
75738;DHT22;64356;45.638;13.764;2022-11-15T12:05:35;20.20;65.50
75738;DHT22;64356;45.638;13.764;2022-11-15T12:08:53;20.20;66.20
75738;DHT22;64356;45.638;13.764;2022-11-15T12:11:24;20.20;66.20
75738;DHT22;64356;45.638;13.764;2022-11-15T12:13:58;20.20;67.20
75738;DHT22;64356;45.638;13.764;2022-11-15T12:16:29;20.30;66.90
75738;DHT22;64356;45.638;13.764;2022-11-15T12:18:58;20.30;66.70
75738;DHT22;64356;45.638;13.764;2022-11-15T12:24:28;20.40;67.20
75738;DHT22;64356;45.638;13.764;2022-11-15T12:27:05;20.40;67.20
75738;DHT22;64356;45.638;13.764;2022-11-15T12:32:03;20.40;67.40
75738;DHT22;64356;45.638;13.764;2022-11-15T12:34:34;20.40;67.60
75738;DHT22;64356;45.638;13.764;2022-11-15T12:37:01;20.40;67.60
75738;DHT22;64356;45.638;13.764;2022-11-15T12:44:58;20.30;68.00
75738;DHT22;64356;45.638;13.764;2022-11-15T12:47:26;20.30;68.00
75738;DHT22;64356;45.638;13.764;2022-11-15T12:49:53;20.30;67.90
75738;DHT22;64356;45.638;13.764;2022-11-15T12:52:19;20.30;68.00
75738;DHT22;64356;45.638;13.764;2022-11-15T12:54:51;20.30;68.00
75738;DHT22;64356;45.638;13.764;2022-11-15T12:57:38;20.30;68.10
75738;DHT22;64356;45.638;13.764;2022-11-15T13:02:41;20.20;68.20
75738;DHT22;64356;45.638;13.764;2022-11-15T13:17:52;20.20;68.40
75738;DHT22;64356;45.638;13.764;2022-11-15T13:20:30;20.20;68.60
75738;DHT22;64356;45.638;13.764;2022-11-15T13:23:14;20.30;69.10
75738;DHT22;64356;45.638;13.764;2022-11-15T13:28:37;20.20;68.80
75738;DHT22;64356;45.638;13.764;2022-11-15T13:31:30;20.20;68.90
75738;DHT22;64356;45.638;13.764;2022-11-15T13:34:01;20.30;68.80
75738;DHT22;64356;45.638;13.764;2022-11-15T13:36:30;20.20;68.90
75738;DHT22;64356;45.638;13.764;2022-11-15T13:39:05;20.20;68.80
75738;DHT22;64356;45.638;13.764;2022-11-15T13:41:36;20.30;69.50
75738;DHT22;64356;45.638;13.764;2022-11-15T13:44:22;20.30;69.00
75738;DHT22;64356;45.638;13.764;2022-11-15T13:46:48;20.30;69.10
75738;DHT22;64356;45.638;13.764;2022-11-15T13:49:14;20.30;69.10
75738;DHT22;64356;45.638;13.764;2022-11-15T13:51:50;20.30;69.30
75738;DHT22;64356;45.638;13.764;2022-11-15T13:56:50;20.30;69.10
75738;DHT22;64356;45.638;13.764;2022-11-15T13:59:31;20.30;69.00
75738;DHT22;64356;45.638;13.764;2022-11-15T14:02:03;20.30;69.10
75738;DHT22;64356;45.638;13.764;2022-11-15T14:04:39;20.30;69.10
75738;DHT22;64356;45.638;13.764;2022-11-15T14:07:19;20.30;69.00
75738;DHT22;64356;45.638;13.764;2022-11-15T14:09:45;20.30;69.00
75738;DHT22;64356;45.638;13.764;2022-11-15T14:12:34;20.30;69.00
75738;DHT22;64356;45.638;13.764;2022-11-15T14:15:18;20.30;68.80
75738;DHT22;64356;45.638;13.764;2022-11-15T14:17:45;20.30;68.70
75738;DHT22;64356;45.638;13.764;2022-11-15T14:20:33;20.30;68.00
75738;DHT22;64356;45.638;13.764;2022-11-15T14:23:23;20.20;66.10
75738;DHT22;64356;45.638;13.764;2022-11-15T14:25:57;20.00;62.10
75738;DHT22;64356;45.638;13.764;2022-11-15T14:30:49;20.00;66.50
75738;DHT22;64356;45.638;13.764;2022-11-15T14:35:49;20.00;65.50
75738;DHT22;64356;45.638;13.764;2022-11-15T14:38:14;20.10;65.50
75738;DHT22;64356;45.638;13.764;2022-11-15T14:40:41;20.10;65.80
75738;DHT22;64356;45.638;13.764;2022-11-15T14:43:09;20.10;65.80
75738;DHT22;64356;45.638;13.764;2022-11-15T14:45:36;20.10;65.90
75738;DHT22;64356;45.638;13.764;2022-11-15T14:48:02;20.10;66.10
75738;DHT22;64356;45.638;13.764;2022-11-15T14:50:28;20.10;66.80
75738;DHT22;64356;45.638;13.764;2022-11-15T14:52:54;20.20;67.80
75738;DHT22;64356;45.638;13.764;2022-11-15T14:55:28;20.20;68.80
75738;DHT22;64356;45.638;13.764;2022-11-15T14:57:56;20.20;69.70
75738;DHT22;64356;45.638;13.764;2022-11-15T15:00:22;20.20;69.60
75738;DHT22;64356;45.638;13.764;2022-11-15T15:02:48;20.20;69.20
75738;DHT22;64356;45.638;13.764;2022-11-15T15:05:21;20.20;69.00
75738;DHT22;64356;45.638;13.764;2022-11-15T15:07:47;20.20;68.80
75738;DHT22;64356;45.638;13.764;2022-11-15T15:10:14;20.20;68.40
75738;DHT22;64356;45.638;13.764;2022-11-15T15:12:40;20.20;68.30
75738;DHT22;64356;45.638;13.764;2022-11-15T15:15:13;20.20;68.20
75738;DHT22;64356;45.638;13.764;2022-11-15T15:17:39;20.20;68.30
75738;DHT22;64356;45.638;13.764;2022-11-15T15:20:05;20.20;68.00
75738;DHT22;64356;45.638;13.764;2022-11-15T15:22:31;20.20;67.80
75738;DHT22;64356;45.638;13.764;2022-11-15T15:24:57;20.20;67.60
75738;DHT22;64356;45.638;13.764;2022-11-15T15:27:22;20.20;67.80
75738;DHT22;64356;45.638;13.764;2022-11-15T15:29:48;20.20;68.00
75738;DHT22;64356;45.638;13.764;2022-11-15T15:32:14;20.20;67.90
75738;DHT22;64356;45.638;13.764;2022-11-15T15:34:39;20.20;68.00
75738;DHT22;64356;45.638;13.764;2022-11-15T15:39:48;20.20;67.80
75738;DHT22;64356;45.638;13.764;2022-11-15T15:42:13;20.20;67.70
75738;DHT22;64356;45.638;13.764;2022-11-15T15:44:39;20.20;67.70
75738;DHT22;64356;45.638;13.764;2022-11-15T15:47:18;20.20;67.60
75738;DHT22;64356;45.638;13.764;2022-11-15T15:49:44;20.20;67.50
75738;DHT22;64356;45.638;13.764;2022-11-15T15:52:10;20.10;67.50
75738;DHT22;64356;45.638;13.764;2022-11-15T15:54:37;20.10;67.40
75738;DHT22;64356;45.638;13.764;2022-11-15T15:57:03;20.10;67.50
75738;DHT22;64356;45.638;13.764;2022-11-15T15:59:28;20.10;67.30
75738;DHT22;64356;45.638;13.764;2022-11-15T16:01:54;20.10;67.40
75738;DHT22;64356;45.638;13.764;2022-11-15T16:04:20;20.10;67.40
75738;DHT22;64356;45.638;13.764;2022-11-15T16:06:45;20.10;67.50
75738;DHT22;64356;45.638;13.764;2022-11-15T16:09:15;20.10;67.30
75738;DHT22;64356;45.638;13.764;2022-11-15T16:11:42;20.10;67.50
75738;DHT22;64356;45.638;13.764;2022-11-15T16:14:08;20.10;67.30
75738;DHT22;64356;45.638;13.764;2022-11-15T16:16:34;20.10;67.50
75738;DHT22;64356;45.638;13.764;2022-11-15T16:19:00;20.00;67.20
75738;DHT22;64356;45.638;13.764;2022-11-15T16:21:27;20.10;67.30
75738;DHT22;64356;45.638;13.764;2022-11-15T16:23:52;20.10;67.50
75738;DHT22;64356;45.638;13.764;2022-11-15T16:26:26;20.00;67.90
75738;DHT22;64356;45.638;13.764;2022-11-15T16:28:52;20.00;67.30
75738;DHT22;64356;45.638;13.764;2022-11-15T16:31:18;20.10;67.40
75738;DHT22;64356;45.638;13.764;2022-11-15T16:33:46;20.00;67.20
75738;DHT22;64356;45.638;13.764;2022-11-15T16:36:22;20.00;67.30
75738;DHT22;64356;45.638;13.764;2022-11-15T16:38:48;20.00;67.30
75738;DHT22;64356;45.638;13.764;2022-11-15T16:41:14;20.00;67.30
75738;DHT22;64356;45.638;13.764;2022-11-15T16:43:47;20.10;67.30
75738;DHT22;64356;45.638;13.764;2022-11-15T16:46:21;20.00;67.30
75738;DHT22;64356;45.638;13.764;2022-11-15T16:48:47;20.00;67.10
75738;DHT22;64356;45.638;13.764;2022-11-15T16:51:14;20.00;67.00
75738;DHT22;64356;45.638;13.764;2022-11-15T16:53:40;20.10;67.20
75738;DHT22;64356;45.638;13.764;2022-11-15T16:56:21;20.10;67.10
75738;DHT22;64356;45.638;13.764;2022-11-15T16:58:48;20.10;67.10
75738;DHT22;64356;45.638;13.764;2022-11-15T17:01:26;20.20;67.10
75738;DHT22;64356;45.638;13.764;2022-11-15T17:03:53;20.20;67.00
75738;DHT22;64356;45.638;13.764;2022-11-15T17:06:20;20.20;67.00
75738;DHT22;64356;45.638;13.764;2022-11-15T17:08:46;20.20;67.10
75738;DHT22;64356;45.638;13.764;2022-11-15T17:11:20;20.30;67.10
75738;DHT22;64356;45.638;13.764;2022-11-15T17:13:46;20.20;67.10
75738;DHT22;64356;45.638;13.764;2022-11-15T17:16:15;20.20;67.20
75738;DHT22;64356;45.638;13.764;2022-11-15T17:18:41;20.20;67.20
75738;DHT22;64356;45.638;13.764;2022-11-15T17:21:14;20.20;67.30
75738;DHT22;64356;45.638;13.764;2022-11-15T17:23:40;20.10;67.20
75738;DHT22;64356;45.638;13.764;2022-11-15T17:26:06;20.10;67.30
75738;DHT22;64356;45.638;13.764;2022-11-15T17:28:32;20.10;67.30
75738;DHT22;64356;45.638;13.764;2022-11-15T17:30:58;20.10;67.40
75738;DHT22;64356;45.638;13.764;2022-11-15T17:33:25;20.10;67.30